Time;durP1;ratioP1;P1;durP2;ratioP2;P2;SDS_P1;SDS_P2;PMS_P1;PMS_P2;Temp;Humidity;BMP_temperature;BMP_pressure;BME280_temperature;BME280_humidity;BME280_pressure;Samples;Min_cycle;Max_cycle;Signal;HPM_P1;HPM_P2
2021/03/10 00:01:07;;;;;;;0.90;0.05;;;;;;;9.56;82.89;99573.81;4856967;29;20109;-52
2021/03/10 00:03:33;;;;;;;0.00;0.00;;;;;;;9.57;82.98;99554.13;4857997;29;20053;-51
2021/03/10 00:06:00;;;;;;;0.95;0.20;;;;;;;9.57;83.03;99556.09;4863479;29;20049;-53
2021/03/10 00:08:26;;;;;;;0.17;0.17;;;;;;;9.60;82.79;99571.94;4860627;29;20049;-55
2021/03/10 00:10:54;;;;;;;0.68;0.20;;;;;;;9.60;82.84;99563.66;4853602;29;20427;-52
2021/03/10 00:13:20;;;;;;;0.17;0.03;;;;;;;9.59;83.20;99570.31;4861327;29;20098;-49
2021/03/10 00:15:47;;;;;;;1.45;0.08;;;;;;;9.62;83.03;99572.34;4861615;29;20056;-52
2021/03/10 00:18:13;;;;;;;0.57;0.20;;;;;;;9.63;83.15;99579.50;4861470;29;20399;-52
2021/03/10 00:20:40;;;;;;;0.65;0.10;;;;;;;9.63;83.21;99565.69;4862362;29;20065;-52
2021/03/10 00:23:06;;;;;;;2.05;0.20;;;;;;;9.65;83.06;99571.63;4861519;29;20567;-55
2021/03/10 00:25:32;;;;;;;0.60;0.22;;;;;;;9.66;82.95;99562.97;4861779;29;20038;-53
2021/03/10 00:28:10;;;;;;;0.20;0.10;;;;;;;9.67;82.97;99574.81;4862201;29;20073;-52
2021/03/10 00:30:45;;;;;;;1.55;0.10;;;;;;;9.69;83.62;99555.91;4861667;29;20082;-53
2021/03/10 00:33:12;;;;;;;0.57;0.22;;;;;;;9.70;83.14;99572.13;4860817;29;20520;-50
2021/03/10 00:35:38;;;;;;;0.38;0.38;;;;;;;9.73;83.05;99576.13;4860765;29;20106;-53
2021/03/10 00:38:04;;;;;;;2.22;0.20;;;;;;;9.73;83.24;99579.69;4861746;29;20094;-52
2021/03/10 00:40:31;;;;;;;1.40;0.17;;;;;;;9.73;83.38;99573.34;4861075;29;20150;-56
2021/03/10 00:43:01;;;;;;;0.20;0.20;;;;;;;9.73;83.32;99576.94;4860592;29;20077;-54
2021/03/10 00:45:27;;;;;;;0.10;0.10;;;;;;;9.72;83.68;99577.28;4861221;29;20457;-52
2021/03/10 00:47:58;;;;;;;0.43;0.10;;;;;;;9.72;84.00;99571.75;4861143;29;20049;-55
2021/03/10 00:50:26;;;;;;;0.17;0.10;;;;;;;9.73;83.76;99565.88;4861443;29;20053;-55
2021/03/10 00:52:53;;;;;;;0.68;0.20;;;;;;;9.74;83.76;99552.84;4860676;29;20061;-53
2021/03/10 00:55:19;;;;;;;0.47;0.13;;;;;;;9.76;83.68;99569.88;4859989;29;20073;-55
2021/03/10 00:57:45;;;;;;;0.35;0.10;;;;;;;9.76;83.83;99554.09;4873649;29;20081;-53
2021/03/10 01:00:12;;;;;;;0.65;0.20;;;;;;;9.76;83.99;99550.50;4858413;29;20160;-54
2021/03/10 01:02:39;;;;;;;0.00;0.00;;;;;;;9.73;84.38;99538.22;4859402;29;20081;-53
2021/03/10 01:05:06;;;;;;;3.83;0.17;;;;;;;9.71;84.48;99542.53;4847141;29;20116;-54
2021/03/10 01:07:32;;;;;;;0.10;0.10;;;;;;;9.70;84.57;99546.44;4859537;29;20511;-49
2021/03/10 01:10:00;;;;;;;1.35;0.10;;;;;;;9.69;84.61;99556.69;4865067;29;20124;-55
2021/03/10 01:12:26;;;;;;;0.45;0.10;;;;;;;9.68;84.95;99565.38;4859241;29;20204;-49
2021/03/10 01:14:52;;;;;;;0.45;0.10;;;;;;;9.66;85.09;99570.47;4859076;29;20492;-52
2021/03/10 01:17:18;;;;;;;0.40;0.10;;;;;;;9.65;85.16;99558.63;4859398;29;20082;-52
2021/03/10 01:19:47;;;;;;;0.32;0.10;;;;;;;9.65;85.51;99574.41;4860915;29;20125;-51
2021/03/10 01:22:14;;;;;;;0.10;0.10;;;;;;;9.66;85.55;99589.81;4860170;29;20495;-55
2021/03/10 01:24:40;;;;;;;0.75;0.32;;;;;;;9.66;85.68;99609.16;4859066;29;20156;-52
2021/03/10 01:27:07;;;;;;;1.33;0.70;;;;;;;9.62;85.93;99627.63;4859571;29;20491;-51
2021/03/10 01:29:33;;;;;;;3.58;1.48;;;;;;;9.58;86.24;99632.31;4843222;29;20124;-53
2021/03/10 01:31:59;;;;;;;4.40;0.90;;;;;;;9.44;86.54;99632.81;4859821;29;20092;-55
2021/03/10 01:34:26;;;;;;;11.93;3.13;;;;;;;9.26;85.89;99634.44;4859364;29;20500;-54
2021/03/10 01:36:52;;;;;;;3.65;0.77;;;;;;;9.13;85.69;99642.03;4859982;29;20084;-55
2021/03/10 01:39:21;;;;;;;12.85;1.83;;;;;;;9.07;85.66;99635.22;4859694;29;20262;-54
2021/03/10 01:41:48;;;;;;;7.85;1.02;;;;;;;9.03;85.37;99634.31;4858734;29;20097;-52
2021/03/10 01:44:15;;;;;;;8.05;1.08;;;;;;;8.97;85.54;99623.94;4857764;29;20068;-56
2021/03/10 01:46:42;;;;;;;5.72;1.85;;;;;;;8.91;85.23;99630.91;4858897;29;20061;-56
2021/03/10 01:49:10;;;;;;;8.07;1.38;;;;;;;8.90;85.14;99630.09;4857778;29;20054;-54
2021/03/10 01:51:37;;;;;;;6.93;1.67;;;;;;;8.86;85.09;99629.22;4857723;29;20045;-54
2021/03/10 01:54:04;;;;;;;6.35;1.00;;;;;;;8.83;85.14;99627.19;4858482;29;20046;-53
2021/03/10 01:56:31;;;;;;;8.05;1.13;;;;;;;8.83;85.01;99629.94;4858858;29;20088;-55
2021/03/10 01:58:57;;;;;;;12.45;2.30;;;;;;;8.82;84.85;99611.78;4873637;29;20405;-50
2021/03/10 02:01:24;;;;;;;5.25;1.27;;;;;;;8.84;84.79;99634.28;4839315;29;20114;-52
2021/03/10 02:03:50;;;;;;;8.02;1.48;;;;;;;8.84;84.77;99623.25;4821176;29;20491;-56
2021/03/10 02:06:48;;;;;;;8.40;1.10;;;;;;;8.83;84.73;99624.44;4838410;29;20046;-54
2021/03/10 02:09:34;;;;;;;6.55;0.98;;;;;;;8.81;84.80;99623.19;4841282;29;20041;-52
2021/03/10 02:12:39;;;;;;;7.72;1.30;;;;;;;8.78;84.68;99630.22;4826089;29;20116;-54
2021/03/10 02:15:32;;;;;;;6.32;0.98;;;;;;;8.80;84.59;99627.09;4837891;29;20507;-54
2021/03/10 02:18:07;;;;;;;7.28;1.20;;;;;;;8.78;84.33;99621.94;4830665;29;20081;-52
2021/03/10 02:20:46;;;;;;;3.55;1.00;;;;;;;8.80;84.70;99614.09;4840755;29;20066;-52
2021/03/10 02:23:37;;;;;;;5.90;1.15;;;;;;;8.82;84.03;99600.75;4823940;29;20098;-53
2021/03/10 02:26:41;;;;;;;11.60;1.67;;;;;;;8.80;84.45;99599.50;4841167;29;20442;-53
2021/03/10 02:29:11;;;;;;;9.73;1.23;;;;;;;8.80;84.35;99586.50;4824285;29;20549;-55
2021/03/10 02:31:43;;;;;;;8.57;1.98;;;;;;;8.81;84.19;99582.59;4840405;29;20057;-56
2021/03/10 02:34:10;;;;;;;7.00;1.42;;;;;;;8.78;84.35;99577.00;4840321;29;20092;-51
2021/03/10 02:36:57;;;;;;;10.88;1.50;;;;;;;8.78;84.32;99580.56;4840509;29;20396;-52
2021/03/10 02:39:24;;;;;;;7.53;1.13;;;;;;;8.80;84.21;99572.72;4838600;29;20057;-55
2021/03/10 02:41:52;;;;;;;8.85;1.70;;;;;;;8.78;84.29;99583.31;4840217;29;20098;-52
2021/03/10 02:44:20;;;;;;;15.50;2.55;;;;;;;8.78;84.39;99588.84;4839186;29;20046;-53
2021/03/10 02:46:46;;;;;;;7.45;1.30;;;;;;;8.77;84.14;99580.91;4840413;29;20077;-56
2021/03/10 02:49:14;;;;;;;10.85;2.03;;;;;;;8.74;84.35;99576.09;4840585;29;20049;-53
2021/03/10 02:51:43;;;;;;;10.20;1.55;;;;;;;8.72;84.26;99584.75;4803105;29;20050;-52
2021/03/10 02:54:13;;;;;;;10.13;1.23;;;;;;;8.72;84.21;99584.75;4840173;29;20046;-55
2021/03/10 02:56:42;;;;;;;6.50;2.13;;;;;;;8.70;84.26;99586.28;4840218;29;20042;-52
2021/03/10 02:59:09;;;;;;;12.65;1.70;;;;;;;8.70;84.17;99584.31;4838726;29;20056;-52
2021/03/10 03:01:36;;;;;;;6.18;1.30;;;;;;;8.71;84.15;99577.63;4856008;29;20056;-54
2021/03/10 03:04:03;;;;;;;9.57;1.67;;;;;;;8.73;83.98;99574.53;4857744;29;20132;-54
2021/03/10 03:06:30;;;;;;;9.48;1.25;;;;;;;8.73;83.97;99574.53;4862512;29;20053;-53
2021/03/10 03:08:56;;;;;;;7.60;1.63;;;;;;;8.71;84.02;99572.09;4858120;29;20121;-52
2021/03/10 03:11:23;;;;;;;10.23;1.58;;;;;;;8.73;83.92;99564.28;4861440;29;20078;-55
2021/03/10 03:13:51;;;;;;;8.75;1.48;;;;;;;8.72;83.92;99564.63;4858592;29;20437;-55
2021/03/10 03:16:18;;;;;;;11.38;2.22;;;;;;;8.70;83.67;99559.50;4859209;29;20088;-52
2021/03/10 03:18:44;;;;;;;5.57;1.48;;;;;;;8.72;83.67;99559.91;4858740;29;20499;-52
2021/03/10 03:21:11;;;;;;;10.43;2.53;;;;;;;8.71;83.60;99566.59;4858450;29;20049;-51
2021/03/10 03:23:40;;;;;;;8.40;1.33;;;;;;;8.72;83.74;99564.63;4857987;29;20060;-55
2021/03/10 03:26:07;;;;;;;4.88;1.45;;;;;;;8.70;83.41;99558.69;4858621;29;20038;-50
2021/03/10 03:28:35;;;;;;;6.13;1.55;;;;;;;8.70;83.53;99553.97;4858917;29;20085;-51
2021/03/10 03:31:03;;;;;;;14.98;2.95;;;;;;;8.71;83.61;99561.06;4855967;29;20041;-51
2021/03/10 03:33:30;;;;;;;6.68;1.67;;;;;;;8.71;83.65;99563.81;4857355;29;20049;-51
2021/03/10 03:35:58;;;;;;;11.02;2.40;;;;;;;8.71;83.84;99552.78;4858160;29;20049;-53
2021/03/10 03:38:27;;;;;;;8.23;3.55;;;;;;;8.70;83.54;99559.50;4858697;29;20053;-54
2021/03/10 03:40:54;;;;;;;9.50;1.30;;;;;;;8.71;83.79;99566.59;4858958;29;20503;-50
2021/03/10 03:43:25;;;;;;;6.78;1.08;;;;;;;8.72;83.86;99557.16;4861561;29;20055;-56
2021/03/10 03:45:51;;;;;;;5.47;1.40;;;;;;;8.69;83.79;99552.34;4859852;29;20243;-53
2021/03/10 03:48:19;;;;;;;9.98;1.48;;;;;;;8.68;83.69;99552.72;4862901;29;20053;-53
2021/03/10 03:50:46;;;;;;;8.02;1.27;;;;;;;8.70;83.75;99562.25;4861285;29;20133;-49
2021/03/10 03:53:13;;;;;;;5.85;0.98;;;;;;;8.67;83.76;99549.16;4861632;29;20057;-51
2021/03/10 03:55:41;;;;;;;7.80;0.80;;;;;;;8.67;83.70;99549.16;4875862;29;20098;-53
2021/03/10 03:58:07;;;;;;;12.65;2.40;;;;;;;8.67;83.71;99540.91;4861295;29;20089;-55
2021/03/10 04:00:34;;;;;;;7.97;1.30;;;;;;;8.68;83.67;99541.69;4861259;29;20113;-55
2021/03/10 04:03:01;;;;;;;9.18;2.40;;;;;;;8.68;83.63;99550.78;4861159;29;20120;-51
2021/03/10 04:05:29;;;;;;;11.85;1.23;;;;;;;8.65;83.61;99534.94;4866177;29;20159;-51
2021/03/10 04:08:10;;;;;;;8.88;1.30;;;;;;;8.65;83.77;99545.97;4862041;29;20045;-53
2021/03/10 04:10:39;;;;;;;27.40;2.72;;;;;;;8.64;83.62;99546.31;4879374;29;20531;-52
2021/03/10 04:13:05;;;;;;;5.82;1.40;;;;;;;8.62;83.88;99540.38;4844874;29;20049;-50
2021/03/10 04:15:33;;;;;;;7.18;1.30;;;;;;;8.63;83.83;99542.75;4861233;29;20057;-54
2021/03/10 04:18:00;;;;;;;5.00;1.40;;;;;;;8.63;83.99;99542.75;4861918;29;20061;-54
2021/03/10 04:20:27;;;;;;;9.85;3.13;;;;;;;8.64;83.70;99546.31;4861445;29;20116;-53
2021/03/10 04:22:53;;;;;;;10.88;1.40;;;;;;;8.63;83.72;99548.28;4861179;29;20053;-50
2021/03/10 04:25:19;;;;;;;15.35;2.22;;;;;;;8.64;83.77;99538.84;4859655;29;20057;-52
2021/03/10 04:27:46;;;;;;;4.28;1.15;;;;;;;8.67;83.72;99540.09;4860465;29;20089;-51
2021/03/10 04:30:13;;;;;;;5.70;1.02;;;;;;;8.67;83.77;99538.13;4861202;29;20092;-49
2021/03/10 04:32:39;;;;;;;7.40;1.60;;;;;;;8.68;83.92;99537.00;4860087;29;20156;-52
2021/03/10 04:35:07;;;;;;;10.40;1.98;;;;;;;8.67;83.89;99524.34;4861268;29;20057;-50
2021/03/10 04:37:34;;;;;;;7.45;1.40;;;;;;;8.66;83.69;99519.97;4861040;29;20053;-52
2021/03/10 04:40:01;;;;;;;9.40;2.50;;;;;;;8.64;83.96;99516.78;4861140;29;20077;-53
2021/03/10 04:42:27;;;;;;;8.95;1.42;;;;;;;8.64;83.96;99521.50;4860462;29;20438;-50
2021/03/10 04:44:53;;;;;;;8.60;1.55;;;;;;;8.66;83.98;99528.25;4860814;29;20101;-56
2021/03/10 04:47:20;;;;;;;9.38;2.72;;;;;;;8.67;84.07;99524.34;4844821;29;20097;-54
2021/03/10 04:49:46;;;;;;;9.52;1.48;;;;;;;8.69;83.99;99519.25;4861357;29;20056;-54
2021/03/10 04:52:16;;;;;;;9.35;2.25;;;;;;;8.67;84.07;99516.06;4858972;29;20472;-55
2021/03/10 04:54:42;;;;;;;8.80;1.65;;;;;;;8.68;83.96;99509.41;4844009;29;20061;-54
2021/03/10 04:57:08;;;;;;;11.77;2.08;;;;;;;8.67;84.07;99509.75;4860257;29;20045;-54
2021/03/10 04:59:35;;;;;;;11.85;1.40;;;;;;;8.65;84.02;99515.63;4860939;29;20129;-54
2021/03/10 05:02:02;;;;;;;16.25;2.00;;;;;;;8.65;83.92;99523.91;4860425;29;20435;-53
2021/03/10 05:04:28;;;;;;;10.95;2.00;;;;;;;8.66;83.67;99544.81;4844202;29;20144;-55
2021/03/10 05:06:55;;;;;;;10.82;1.92;;;;;;;8.67;83.74;99568.47;4863207;29;20057;-54
2021/03/10 05:09:21;;;;;;;15.95;2.97;;;;;;;8.64;83.92;99566.44;4860809;29;20102;-55
2021/03/10 05:11:47;;;;;;;7.95;1.45;;;;;;;8.61;83.69;99553.38;4864094;29;20143;-51
2021/03/10 05:14:13;;;;;;;11.80;1.48;;;;;;;8.59;83.72;99552.94;4860455;29;20049;-49
2021/03/10 05:16:39;;;;;;;10.65;1.77;;;;;;;8.58;83.41;99554.88;4860439;29;20128;-52
2021/03/10 05:19:06;;;;;;;12.23;2.75;;;;;;;8.58;83.65;99556.84;4860987;29;20058;-53
2021/03/10 05:21:33;;;;;;;7.95;1.60;;;;;;;8.56;83.58;99550.88;4859705;29;20041;-55
2021/03/10 05:23:59;;;;;;;18.85;2.88;;;;;;;8.56;83.49;99526.06;4843124;29;20045;-51
2021/03/10 05:26:26;;;;;;;15.30;3.97;;;;;;;8.55;83.38;99530.00;4873637;29;20053;-56
2021/03/10 05:28:52;;;;;;;8.20;1.67;;;;;;;8.54;83.20;99528.41;4859871;29;20128;-50
2021/03/10 05:31:18;;;;;;;10.57;2.75;;;;;;;8.52;83.13;99533.47;4843417;29;20145;-51
2021/03/10 05:33:45;;;;;;;13.27;3.95;;;;;;;8.52;83.15;99541.75;4860174;29;20053;-54
2021/03/10 05:36:11;;;;;;;12.80;1.40;;;;;;;8.51;82.87;99523.59;4859784;29;20045;-54
2021/03/10 05:38:38;;;;;;;13.05;2.67;;;;;;;8.50;82.73;99533.81;4860183;29;20068;-56
2021/03/10 05:41:04;;;;;;;9.70;1.90;;;;;;;8.48;82.74;99529.81;4872977;29;20049;-54
2021/03/10 05:43:31;;;;;;;12.15;2.13;;;;;;;8.46;82.65;99527.44;4858002;29;20452;-55
2021/03/10 05:45:57;;;;;;;7.38;1.60;;;;;;;8.44;82.59;99542.75;4843842;29;20069;-54
2021/03/10 05:48:24;;;;;;;12.80;1.63;;;;;;;8.44;82.64;99542.75;4874692;29;20053;-53
2021/03/10 05:50:51;;;;;;;12.70;1.35;;;;;;;8.45;82.49;99531.34;4859373;29;20077;-56
2021/03/10 05:53:22;;;;;;;9.77;1.55;;;;;;;8.46;82.43;99537.66;4858639;29;20076;-52
2021/03/10 05:55:49;;;;;;;9.75;2.30;;;;;;;8.45;82.42;99542.38;4858808;29;20081;-54
2021/03/10 05:58:17;;;;;;;9.15;1.23;;;;;;;8.43;82.34;99546.66;4842799;29;20058;-53
2021/03/10 06:00:47;;;;;;;12.40;1.50;;;;;;;8.41;82.44;99546.22;4858316;29;20053;-51
2021/03/10 06:03:15;;;;;;;9.88;1.27;;;;;;;8.40;82.47;99541.84;4858910;29;20073;-53
2021/03/10 06:05:43;;;;;;;9.98;2.08;;;;;;;8.39;82.61;99538.28;4847263;29;20448;-54
2021/03/10 06:08:14;;;;;;;9.75;3.03;;;;;;;8.38;82.44;99539.47;4857628;29;20042;-51
2021/03/10 06:10:43;;;;;;;16.98;2.83;;;;;;;8.40;82.55;99533.59;4863020;29;20060;-54
2021/03/10 06:13:27;;;;;;;8.48;1.73;;;;;;;8.39;82.52;99526.50;4858464;29;20511;-50
2021/03/10 06:15:56;;;;;;;13.43;2.40;;;;;;;8.40;82.56;99534.38;4858170;29;20077;-55
2021/03/10 06:18:29;;;;;;;15.30;3.38;;;;;;;8.38;82.60;99546.94;4859085;29;20057;-55
2021/03/10 06:21:17;;;;;;;15.20;1.75;;;;;;;8.38;82.55;99549.69;4841264;29;20034;-51
2021/03/10 06:23:54;;;;;;;7.85;1.90;;;;;;;8.38;82.39;99541.44;4856687;29;20054;-55
2021/03/10 06:26:26;;;;;;;9.32;1.70;;;;;;;8.38;82.40;99541.44;4853896;29;20049;-56
2021/03/10 06:28:54;;;;;;;12.65;1.88;;;;;;;8.38;82.40;99527.63;4855548;29;20069;-55
2021/03/10 06:31:24;;;;;;;9.50;2.08;;;;;;;8.39;82.52;99526.50;4854333;29;20105;-56
2021/03/10 06:33:57;;;;;;;16.27;2.63;;;;;;;8.35;82.65;99531.91;4853626;29;20777;-53
2021/03/10 06:36:25;;;;;;;9.15;1.83;;;;;;;8.35;82.58;99514.56;4867686;29;20101;-58
2021/03/10 06:38:52;;;;;;;12.73;1.98;;;;;;;8.34;82.62;99508.25;4854341;29;20050;-56
2021/03/10 06:41:35;;;;;;;11.10;2.05;;;;;;;8.31;82.92;99500.69;4854341;29;20041;-57
2021/03/10 06:44:13;;;;;;;14.90;1.58;;;;;;;8.31;83.02;99497.16;4854476;29;20102;-56
2021/03/10 06:47:01;;;;;;;11.73;2.33;;;;;;;8.27;83.38;99485.22;4854571;29;20288;-55
2021/03/10 06:49:33;;;;;;;7.28;1.80;;;;;;;8.28;83.08;99495.91;4853936;29;20049;-55
2021/03/10 06:52:08;;;;;;;19.77;7.82;;;;;;;8.26;83.25;99484.41;4854266;29;20046;-53
2021/03/10 06:54:35;;;;;;;16.73;3.17;;;;;;;8.28;83.21;99497.88;4853724;29;20048;-58
2021/03/10 06:57:05;;;;;;;13.65;1.80;;;;;;;8.27;83.33;99488.00;4854362;29;20129;-57
2021/03/10 06:59:42;;;;;;;16.70;2.50;;;;;;;8.24;83.57;99480.41;4828164;29;772337;-55
2021/03/10 07:02:14;;;;;;;9.93;2.15;;;;;;;8.22;83.56;99471.69;4854541;29;20064;-56
2021/03/10 07:04:46;;;;;;;21.20;3.55;;;;;;;8.18;83.65;99471.63;4853478;29;20063;-55
2021/03/10 07:07:14;;;;;;;12.90;2.08;;;;;;;8.18;83.73;99465.31;4837769;29;20511;-54
2021/03/10 07:09:45;;;;;;;16.67;2.33;;;;;;;8.19;83.82;99469.66;4855614;29;20041;-57
2021/03/10 07:12:15;;;;;;;11.40;2.22;;;;;;;8.16;83.94;99467.63;4854240;29;20049;-55
2021/03/10 07:14:42;;;;;;;14.90;2.47;;;;;;;8.13;84.13;99460.09;4854199;29;20050;-55
2021/03/10 07:17:16;;;;;;;10.48;2.97;;;;;;;8.13;83.94;99446.31;4857463;29;20073;-54
2021/03/10 07:19:43;;;;;;;8.93;1.92;;;;;;;8.15;83.82;99435.72;4857399;29;20074;-52
2021/03/10 07:22:23;;;;;;;17.30;3.70;;;;;;;8.14;84.03;99425.84;4872116;29;20082;-51
2021/03/10 07:25:15;;;;;;;19.35;3.70;;;;;;;8.13;84.10;99414.00;4857581;29;20049;-53
2021/03/10 07:27:55;;;;;;;16.60;2.63;;;;;;;8.15;84.39;99394.38;4859241;29;20057;-54
2021/03/10 07:30:42;;;;;;;12.73;2.63;;;;;;;8.13;84.39;99391.19;4857448;29;20074;-53
2021/03/10 07:33:20;;;;;;;11.85;2.20;;;;;;;8.11;84.25;99382.44;4856328;29;20623;-53
2021/03/10 07:35:58;;;;;;;27.90;5.07;;;;;;;8.13;84.19;99369.13;4856351;29;20117;-55
2021/03/10 07:38:37;;;;;;;15.63;2.40;;;;;;;8.16;84.22;99371.13;4857341;29;20492;-54
2021/03/10 07:41:13;;;;;;;7.93;2.10;;;;;;;8.17;84.35;99375.50;4856755;29;20574;-53
2021/03/10 07:43:48;;;;;;;16.52;2.85;;;;;;;8.18;84.37;99377.88;4856816;29;20045;-54
2021/03/10 07:46:28;;;;;;;11.50;2.83;;;;;;;8.20;84.38;99369.25;4857999;29;20125;-55
2021/03/10 07:48:56;;;;;;;19.73;2.78;;;;;;;8.21;84.33;99370.84;4857050;29;21370;-54
2021/03/10 07:51:32;;;;;;;13.32;2.33;;;;;;;8.23;84.44;99363.84;4870998;29;20038;-53
2021/03/10 07:54:00;;;;;;;15.15;2.95;;;;;;;8.27;84.11;99363.91;4840896;29;20124;-55
2021/03/10 07:56:30;;;;;;;9.30;2.15;;;;;;;8.27;84.50;99364.72;4857119;29;20041;-54
2021/03/10 07:59:17;;;;;;;13.40;3.10;;;;;;;8.27;84.61;99361.97;4856621;29;20041;-52
2021/03/10 08:01:46;;;;;;;18.50;3.33;;;;;;;8.29;84.43;99348.59;4857818;29;20144;-55
2021/03/10 08:04:17;;;;;;;10.07;2.60;;;;;;;8.30;84.54;99349.41;4858065;29;20049;-52
2021/03/10 08:06:54;;;;;;;11.48;3.42;;;;;;;8.31;84.56;99340.00;4858846;29;20457;-52
2021/03/10 08:09:23;;;;;;;17.27;4.72;;;;;;;8.32;84.43;99327.78;4842906;29;20140;-53
2021/03/10 08:12:12;;;;;;;14.27;4.45;;;;;;;8.29;84.38;99318.28;4861290;29;20045;-56
2021/03/10 08:14:43;;;;;;;13.85;3.55;;;;;;;8.33;84.47;99329.38;4860615;29;20041;-54
2021/03/10 08:17:20;;;;;;;9.50;2.70;;;;;;;8.33;84.62;99310.09;4861972;29;20069;-52
2021/03/10 08:19:55;;;;;;;13.60;2.95;;;;;;;8.34;84.39;99309.69;4861604;29;20052;-52
2021/03/10 08:22:24;;;;;;;15.70;2.47;;;;;;;8.38;84.47;99321.63;4861317;29;20037;-52
2021/03/10 08:24:52;;;;;;;11.70;2.83;;;;;;;8.44;84.33;99298.09;4875403;29;20057;-53
2021/03/10 08:27:30;;;;;;;10.10;3.13;;;;;;;8.49;84.23;99289.53;4861238;29;20046;-49
2021/03/10 08:29:57;;;;;;;9.65;2.70;;;;;;;8.55;84.25;99285.28;4861216;29;20049;-53
2021/03/10 08:32:28;;;;;;;7.85;2.17;;;;;;;8.59;84.29;99290.88;4844375;29;20038;-51
2021/03/10 08:34:59;;;;;;;11.40;2.35;;;;;;;8.61;84.20;99280.25;4861617;29;20053;-59
2021/03/10 08:37:27;;;;;;;24.15;3.67;;;;;;;8.63;84.27;99263.34;4845520;29;20046;-54
2021/03/10 08:39:54;;;;;;;12.13;3.03;;;;;;;8.67;83.97;99278.78;4852623;29;20053;-54
2021/03/10 08:42:22;;;;;;;11.27;1.95;;;;;;;8.68;84.00;99283.16;4860742;29;20564;-55
2021/03/10 08:44:50;;;;;;;11.68;3.08;;;;;;;8.69;83.91;99273.69;4857931;29;20057;-54
2021/03/10 08:47:23;;;;;;;17.17;2.97;;;;;;;8.71;84.00;99262.31;4858554;29;20049;-56
2021/03/10 08:49:55;;;;;;;13.70;2.83;;;;;;;8.72;83.78;99239.06;4859171;29;20076;-52
2021/03/10 08:52:23;;;;;;;14.13;3.33;;;;;;;8.74;83.70;99225.69;4858534;29;20450;-52
2021/03/10 08:55:01;;;;;;;12.63;2.17;;;;;;;8.80;83.98;99232.47;4857629;29;20101;-56
2021/03/10 08:57:30;;;;;;;8.05;2.13;;;;;;;8.85;83.81;99229.41;4842988;29;20050;-55
2021/03/10 08:59:58;;;;;;;9.48;2.30;;;;;;;8.92;83.62;99208.22;4861592;29;20080;-53
2021/03/10 09:02:35;;;;;;;9.13;2.40;;;;;;;8.94;83.57;99205.91;4874382;29;20064;-53
2021/03/10 09:05:05;;;;;;;12.63;2.13;;;;;;;8.91;83.65;99203.09;4864609;29;20037;-53
2021/03/10 09:07:32;;;;;;;14.98;2.13;;;;;;;8.85;83.27;99197.09;4858982;29;20045;-52
2021/03/10 09:10:01;;;;;;;9.13;2.53;;;;;;;8.81;83.32;99199.00;4861788;29;20153;-56
2021/03/10 09:12:28;;;;;;;16.60;2.78;;;;;;;8.78;83.17;99199.75;4885332;29;20124;-52
2021/03/10 09:14:56;;;;;;;11.13;2.15;;;;;;;8.75;83.34;99175.66;4860595;29;20094;-50
2021/03/10 09:17:36;;;;;;;16.13;3.08;;;;;;;8.75;83.35;99181.19;4858068;29;20058;-56
2021/03/10 09:20:06;;;;;;;15.43;5.47;;;;;;;8.77;83.43;99170.56;4858378;29;20074;-54
2021/03/10 09:22:41;;;;;;;12.05;3.30;;;;;;;8.79;83.52;99182.00;4841716;29;20057;-54
2021/03/10 09:25:20;;;;;;;16.27;5.53;;;;;;;8.80;83.43;99161.53;4857900;29;20049;-52
2021/03/10 09:27:46;;;;;;;20.83;4.40;;;;;;;8.78;83.41;99158.38;4859356;29;20049;-51
2021/03/10 09:30:30;;;;;;;16.42;4.03;;;;;;;8.75;83.58;99137.03;4865052;29;20083;-56
2021/03/10 09:32:58;;;;;;;19.75;4.22;;;;;;;8.77;83.59;99129.16;4841399;29;20097;-55
2021/03/10 09:35:33;;;;;;;10.80;2.88;;;;;;;8.83;83.87;99122.16;4857016;29;20041;-54
2021/03/10 09:38:06;;;;;;;10.77;2.35;;;;;;;8.84;83.88;99134.78;4858617;29;20054;-54
2021/03/10 09:40:38;;;;;;;;;;;;;;;8.85;84.06;99127.31;4853976;29;20823;-59
2021/03/10 09:43:07;;;;;;;7.82;2.67;;;;;;;8.86;83.83;99104.06;4866314;29;19924;-49
2021/03/10 09:45:36;;;;;;;10.52;3.50;;;;;;;8.86;83.84;99099.34;4855293;29;20468;-53
2021/03/10 09:48:07;;;;;;;13.52;4.63;;;;;;;8.84;83.99;99100.91;4874172;29;20408;-53
2021/03/10 09:50:43;;;;;;;9.43;4.20;;;;;;;8.81;84.45;99094.16;4856554;29;20049;-55
2021/03/10 09:53:25;;;;;;;15.05;4.45;;;;;;;8.80;84.46;99081.53;4864972;29;20371;-55
2021/03/10 09:56:03;;;;;;;9.85;3.08;;;;;;;8.80;84.63;99051.16;4837650;29;20038;-54
2021/03/10 09:58:30;;;;;;;10.57;3.30;;;;;;;8.82;84.56;99048.03;4857192;29;20033;-56
2021/03/10 10:01:00;;;;;;;8.60;2.80;;;;;;;8.79;84.71;99040.53;4867449;29;20057;-53
2021/03/10 10:03:27;;;;;;;13.50;3.63;;;;;;;8.79;84.80;99037.75;4855315;29;20464;-57
2021/03/10 10:06:07;;;;;;;12.60;2.88;;;;;;;8.76;85.26;99033.78;4842704;29;20059;-54
2021/03/10 10:08:35;;;;;;;10.90;3.15;;;;;;;8.76;84.84;99022.75;4854915;29;20480;-56
2021/03/10 10:11:09;;;;;;;10.20;3.33;;;;;;;8.77;85.26;99029.03;4863065;29;20052;-55
2021/03/10 10:13:45;;;;;;;;;;;;;;;8.70;86.57;99040.78;4857341;29;20069;-56
2021/03/10 10:16:12;;;;;;;11.98;3.55;;;;;;;8.65;85.96;99010.78;4839543;29;19930;-54
2021/03/10 10:18:45;;;;;;;15.80;3.10;;;;;;;8.63;85.70;98991.03;4855364;29;20572;-54
2021/03/10 10:21:12;;;;;;;17.48;3.95;;;;;;;8.66;85.87;98993.03;4857104;29;20042;-56
2021/03/10 10:23:39;;;;;;;16.60;4.63;;;;;;;8.66;86.15;98993.03;4840501;29;20501;-58
2021/03/10 10:26:07;;;;;;;17.13;4.60;;;;;;;8.66;86.03;98987.53;4856901;29;20089;-56
2021/03/10 10:28:34;;;;;;;15.35;4.20;;;;;;;8.69;86.30;98989.53;4858412;29;20719;-54
2021/03/10 10:31:08;;;;;;;23.10;5.97;;;;;;;8.71;86.15;98965.13;4870735;29;20858;-53
2021/03/10 10:33:34;;;;;;;16.58;4.82;;;;;;;8.71;86.35;98956.06;4857279;29;20057;-57
2021/03/10 10:36:01;;;;;;;17.80;4.57;;;;;;;8.68;86.55;98927.28;4856887;29;20049;-54
2021/03/10 10:38:28;;;;;;;19.92;5.53;;;;;;;8.70;86.63;98913.09;4857381;29;20045;-57
2021/03/10 10:40:54;;;;;;;13.25;4.28;;;;;;;8.69;86.63;98915.03;4856219;29;20037;-56
2021/03/10 10:43:20;;;;;;;16.35;4.63;;;;;;;8.70;86.59;98908.38;4856713;29;20111;-56
2021/03/10 10:45:47;;;;;;;11.77;3.78;;;;;;;8.67;86.92;98892.56;4870205;29;20073;-54
2021/03/10 10:48:13;;;;;;;17.85;5.90;;;;;;;8.66;87.09;98888.22;4856300;29;20045;-56
2021/03/10 10:50:39;;;;;;;17.77;5.07;;;;;;;8.70;87.11;98882.75;4856608;29;20443;-57
2021/03/10 10:53:06;;;;;;;12.85;4.53;;;;;;;8.72;87.19;98869.34;4856438;29;20792;-57
2021/03/10 10:55:32;;;;;;;26.17;5.63;;;;;;;8.69;87.52;98865.38;4856975;29;20053;-54
2021/03/10 10:57:59;;;;;;;18.17;4.85;;;;;;;8.68;87.57;98847.28;4856483;29;20057;-53
2021/03/10 11:00:27;;;;;;;21.48;4.72;;;;;;;8.66;87.34;98857.88;4856340;29;20056;-55
2021/03/10 11:02:55;;;;;;;8.68;3.10;;;;;;;8.71;87.48;98848.47;4856350;29;20049;-54
2021/03/10 11:05:22;;;;;;;16.45;3.08;;;;;;;8.73;87.75;98826.81;4849001;29;20055;-57
2021/03/10 11:07:49;;;;;;;9.90;3.67;;;;;;;8.77;87.70;98816.59;4861078;29;20110;-53
2021/03/10 11:10:15;;;;;;;7.13;2.70;;;;;;;8.77;87.49;98820.16;4861796;29;20100;-54
2021/03/10 11:12:41;;;;;;;10.35;2.67;;;;;;;8.77;87.49;98811.88;4856498;29;20053;-55
2021/03/10 11:15:08;;;;;;;10.52;3.67;;;;;;;8.79;87.53;98806.75;4856668;29;20105;-52
2021/03/10 11:17:36;;;;;;;12.52;3.20;;;;;;;8.80;87.62;98813.06;4857032;29;20092;-61
2021/03/10 11:20:22;;;;;;;9.13;3.53;;;;;;;8.80;87.70;98796.53;4854167;29;20124;-55
2021/03/10 11:22:49;;;;;;;19.38;5.13;;;;;;;8.82;87.70;98780.38;4856060;29;20060;-57
2021/03/10 11:25:16;;;;;;;9.82;4.03;;;;;;;8.83;87.58;98774.47;4840111;29;20504;-54
2021/03/10 11:27:42;;;;;;;12.50;4.07;;;;;;;8.86;87.71;98772.94;4856775;29;20053;-54
2021/03/10 11:30:11;;;;;;;11.77;3.75;;;;;;;8.86;87.86;98770.97;4856034;29;20056;-56
2021/03/10 11:32:37;;;;;;;7.47;2.50;;;;;;;8.91;87.83;98775.34;4841730;29;20049;-55
2021/03/10 11:35:06;;;;;;;9.93;2.70;;;;;;;8.94;87.95;98775.38;4856893;29;20060;-57
2021/03/10 11:37:32;;;;;;;8.15;2.38;;;;;;;8.98;88.09;98765.13;4855391;29;20061;-54
2021/03/10 11:39:59;;;;;;;6.43;3.08;;;;;;;9.02;87.93;98754.94;4854425;29;20049;-56
2021/03/10 11:42:25;;;;;;;5.25;2.17;;;;;;;9.07;88.24;98748.25;4857220;29;20052;-55
2021/03/10 11:44:52;;;;;;;7.47;1.73;;;;;;;9.12;88.35;98742.38;4856324;29;20053;-56
2021/03/10 11:47:19;;;;;;;4.00;1.30;;;;;;;9.14;88.42;98727.00;4856756;29;20527;-55
2021/03/10 11:49:45;;;;;;;5.22;1.67;;;;;;;9.19;88.46;98723.88;4870011;29;20041;-55
2021/03/10 11:52:16;;;;;;;4.68;1.98;;;;;;;9.23;88.54;98710.13;4856359;29;20503;-55